sensor_id;sensor_type;location;lat;lon;timestamp;P1;durP1;ratioP1;P2;durP2;ratioP2
58982;SDS011;44771;49.982;8.560;2023-03-19T00:00:37;21.62;;;16.12;;
58982;SDS011;44771;49.982;8.560;2023-03-19T00:05:39;21.77;;;18.50;;
58982;SDS011;44771;49.982;8.560;2023-03-19T00:10:42;20.52;;;18.33;;
58982;SDS011;44771;49.982;8.560;2023-03-19T00:15:44;26.23;;;20.12;;
58982;SDS011;44771;49.982;8.560;2023-03-19T00:20:45;23.50;;;18.55;;
58982;SDS011;44771;49.982;8.560;2023-03-19T00:25:49;24.45;;;19.12;;
58982;SDS011;44771;49.982;8.560;2023-03-19T00:30:50;20.55;;;18.02;;
58982;SDS011;44771;49.982;8.560;2023-03-19T00:35:52;24.80;;;18.60;;
58982;SDS011;44771;49.982;8.560;2023-03-19T00:40:55;22.23;;;19.05;;
58982;SDS011;44771;49.982;8.560;2023-03-19T00:45:57;28.15;;;18.23;;
58982;SDS011;44771;49.982;8.560;2023-03-19T00:51:01;26.08;;;19.05;;
58982;SDS011;44771;49.982;8.560;2023-03-19T00:56:05;21.10;;;18.35;;
58982;SDS011;44771;49.982;8.560;2023-03-19T01:01:07;23.62;;;18.70;;
58982;SDS011;44771;49.982;8.560;2023-03-19T01:06:09;21.02;;;17.23;;
58982;SDS011;44771;49.982;8.560;2023-03-19T01:11:12;21.05;;;18.05;;
58982;SDS011;44771;49.982;8.560;2023-03-19T01:16:15;24.63;;;19.52;;
58982;SDS011;44771;49.982;8.560;2023-03-19T01:21:17;19.98;;;18.08;;
58982;SDS011;44771;49.982;8.560;2023-03-19T01:26:20;21.25;;;17.90;;
58982;SDS011;44771;49.982;8.560;2023-03-19T01:31:22;21.75;;;18.27;;
58982;SDS011;44771;49.982;8.560;2023-03-19T01:36:23;19.62;;;17.55;;
58982;SDS011;44771;49.982;8.560;2023-03-19T01:41:27;19.45;;;17.65;;
58982;SDS011;44771;49.982;8.560;2023-03-19T01:46:29;22.98;;;18.85;;
58982;SDS011;44771;49.982;8.560;2023-03-19T01:51:33;18.85;;;17.15;;
58982;SDS011;44771;49.982;8.560;2023-03-19T01:56:41;19.80;;;17.73;;
58982;SDS011;44771;49.982;8.560;2023-03-19T02:01:45;17.62;;;15.65;;
58982;SDS011;44771;49.982;8.560;2023-03-19T02:06:51;19.30;;;17.40;;
58982;SDS011;44771;49.982;8.560;2023-03-19T02:11:56;19.00;;;16.77;;
58982;SDS011;44771;49.982;8.560;2023-03-19T02:16:59;18.30;;;16.50;;
58982;SDS011;44771;49.982;8.560;2023-03-19T02:22:01;19.37;;;16.83;;
58982;SDS011;44771;49.982;8.560;2023-03-19T02:27:06;21.75;;;19.67;;
58982;SDS011;44771;49.982;8.560;2023-03-19T02:32:08;18.70;;;16.90;;
58982;SDS011;44771;49.982;8.560;2023-03-19T02:37:11;21.55;;;19.33;;
58982;SDS011;44771;49.982;8.560;2023-03-19T02:42:19;19.33;;;17.00;;
58982;SDS011;44771;49.982;8.560;2023-03-19T02:47:22;19.23;;;17.37;;
58982;SDS011;44771;49.982;8.560;2023-03-19T02:52:24;20.42;;;18.33;;
58982;SDS011;44771;49.982;8.560;2023-03-19T02:57:27;21.92;;;18.60;;
58982;SDS011;44771;49.982;8.560;2023-03-19T03:02:29;20.83;;;18.73;;
58982;SDS011;44771;49.982;8.560;2023-03-19T03:07:31;23.02;;;18.65;;
58982;SDS011;44771;49.982;8.560;2023-03-19T03:12:34;19.70;;;17.55;;
58982;SDS011;44771;49.982;8.560;2023-03-19T03:17:36;21.45;;;18.02;;
58982;SDS011;44771;49.982;8.560;2023-03-19T03:22:38;20.27;;;18.15;;
58982;SDS011;44771;49.982;8.560;2023-03-19T03:27:42;21.92;;;19.73;;
58982;SDS011;44771;49.982;8.560;2023-03-19T03:32:44;20.58;;;18.67;;
58982;SDS011;44771;49.982;8.560;2023-03-19T03:37:46;19.83;;;17.98;;
58982;SDS011;44771;49.982;8.560;2023-03-19T03:42:49;20.40;;;18.25;;
58982;SDS011;44771;49.982;8.560;2023-03-19T03:47:51;20.77;;;17.17;;
58982;SDS011;44771;49.982;8.560;2023-03-19T03:52:52;21.37;;;18.60;;
58982;SDS011;44771;49.982;8.560;2023-03-19T03:57:56;19.27;;;17.65;;
58982;SDS011;44771;49.982;8.560;2023-03-19T04:02:57;23.25;;;18.40;;
58982;SDS011;44771;49.982;8.560;2023-03-19T04:07:59;20.45;;;18.42;;
58982;SDS011;44771;49.982;8.560;2023-03-19T04:13:02;20.77;;;17.95;;
58982;SDS011;44771;49.982;8.560;2023-03-19T04:18:04;22.25;;;17.75;;
58982;SDS011;44771;49.982;8.560;2023-03-19T04:23:06;19.60;;;17.10;;
58982;SDS011;44771;49.982;8.560;2023-03-19T04:28:09;19.80;;;17.77;;
58982;SDS011;44771;49.982;8.560;2023-03-19T04:33:10;19.35;;;17.45;;
58982;SDS011;44771;49.982;8.560;2023-03-19T04:38:12;23.12;;;18.92;;
58982;SDS011;44771;49.982;8.560;2023-03-19T04:43:15;20.92;;;17.33;;
58982;SDS011;44771;49.982;8.560;2023-03-19T04:48:17;21.77;;;18.27;;
58982;SDS011;44771;49.982;8.560;2023-03-19T04:53:19;24.08;;;17.58;;
58982;SDS011;44771;49.982;8.560;2023-03-19T04:58:22;20.83;;;18.73;;
58982;SDS011;44771;49.982;8.560;2023-03-19T05:03:24;20.62;;;17.77;;
58982;SDS011;44771;49.982;8.560;2023-03-19T05:08:25;22.50;;;18.42;;
58982;SDS011;44771;49.982;8.560;2023-03-19T05:13:29;20.67;;;18.65;;
58982;SDS011;44771;49.982;8.560;2023-03-19T05:18:30;20.33;;;18.25;;
58982;SDS011;44771;49.982;8.560;2023-03-19T05:23:32;21.10;;;18.37;;
58982;SDS011;44771;49.982;8.560;2023-03-19T05:28:35;22.77;;;18.50;;
58982;SDS011;44771;49.982;8.560;2023-03-19T05:33:37;23.17;;;18.62;;
58982;SDS011;44771;49.982;8.560;2023-03-19T05:38:39;20.77;;;18.65;;
58982;SDS011;44771;49.982;8.560;2023-03-19T05:43:42;20.88;;;18.67;;
58982;SDS011;44771;49.982;8.560;2023-03-19T05:48:44;21.23;;;18.73;;
58982;SDS011;44771;49.982;8.560;2023-03-19T05:53:45;20.33;;;18.33;;
58982;SDS011;44771;49.982;8.560;2023-03-19T05:58:48;19.85;;;17.80;;
58982;SDS011;44771;49.982;8.560;2023-03-19T06:03:50;20.85;;;18.65;;
58982;SDS011;44771;49.982;8.560;2023-03-19T06:08:52;24.50;;;19.30;;
58982;SDS011;44771;49.982;8.560;2023-03-19T06:13:55;22.80;;;20.40;;
58982;SDS011;44771;49.982;8.560;2023-03-19T06:18:57;22.30;;;17.52;;
58982;SDS011;44771;49.982;8.560;2023-03-19T06:23:59;21.58;;;18.20;;
58982;SDS011;44771;49.982;8.560;2023-03-19T06:29:04;20.92;;;18.73;;
58982;SDS011;44771;49.982;8.560;2023-03-19T06:34:06;20.58;;;18.42;;
58982;SDS011;44771;49.982;8.560;2023-03-19T06:39:08;20.85;;;18.52;;
58982;SDS011;44771;49.982;8.560;2023-03-19T06:44:11;20.85;;;18.75;;
58982;SDS011;44771;49.982;8.560;2023-03-19T06:49:13;20.85;;;18.62;;
58982;SDS011;44771;49.982;8.560;2023-03-19T06:54:15;19.58;;;17.52;;
58982;SDS011;44771;49.982;8.560;2023-03-19T06:59:18;22.67;;;19.12;;
58982;SDS011;44771;49.982;8.560;2023-03-19T07:04:20;19.45;;;17.00;;
58982;SDS011;44771;49.982;8.560;2023-03-19T07:09:22;19.80;;;17.70;;
58982;SDS011;44771;49.982;8.560;2023-03-19T07:14:25;18.23;;;16.33;;
58982;SDS011;44771;49.982;8.560;2023-03-19T07:19:27;18.67;;;17.02;;
58982;SDS011;44771;49.982;8.560;2023-03-19T07:24:29;19.15;;;17.15;;
58982;SDS011;44771;49.982;8.560;2023-03-19T07:29:32;20.50;;;16.45;;
58982;SDS011;44771;49.982;8.560;2023-03-19T07:34:33;18.25;;;16.35;;
58982;SDS011;44771;49.982;8.560;2023-03-19T07:39:35;18.48;;;16.52;;
58982;SDS011;44771;49.982;8.560;2023-03-19T07:44:38;18.30;;;16.33;;
58982;SDS011;44771;49.982;8.560;2023-03-19T07:49:40;19.42;;;16.58;;
58982;SDS011;44771;49.982;8.560;2023-03-19T07:54:42;17.52;;;15.63;;
58982;SDS011;44771;49.982;8.560;2023-03-19T07:59:45;18.80;;;16.23;;
58982;SDS011;44771;49.982;8.560;2023-03-19T08:04:47;19.02;;;16.27;;
58982;SDS011;44771;49.982;8.560;2023-03-19T08:09:48;18.92;;;17.23;;
58982;SDS011;44771;49.982;8.560;2023-03-19T08:14:51;18.20;;;16.60;;
58982;SDS011;44771;49.982;8.560;2023-03-19T08:19:53;16.50;;;14.50;;
58982;SDS011;44771;49.982;8.560;2023-03-19T08:24:55;18.10;;;15.10;;
58982;SDS011;44771;49.982;8.560;2023-03-19T08:29:58;16.25;;;14.63;;
58982;SDS011;44771;49.982;8.560;2023-03-19T08:35:00;17.20;;;15.35;;
58982;SDS011;44771;49.982;8.560;2023-03-19T08:40:02;17.10;;;15.32;;
58982;SDS011;44771;49.982;8.560;2023-03-19T08:45:06;15.93;;;14.35;;
58982;SDS011;44771;49.982;8.560;2023-03-19T08:50:09;15.70;;;14.47;;
58982;SDS011;44771;49.982;8.560;2023-03-19T08:55:12;16.80;;;15.30;;
58982;SDS011;44771;49.982;8.560;2023-03-19T09:05:19;16.05;;;14.60;;
58982;SDS011;44771;49.982;8.560;2023-03-19T09:10:21;15.40;;;14.07;;
58982;SDS011;44771;49.982;8.560;2023-03-19T09:15:24;15.30;;;14.02;;
58982;SDS011;44771;49.982;8.560;2023-03-19T09:20:26;19.92;;;15.35;;
58982;SDS011;44771;49.982;8.560;2023-03-19T09:25:28;15.80;;;14.25;;
58982;SDS011;44771;49.982;8.560;2023-03-19T09:30:31;13.98;;;12.88;;
58982;SDS011;44771;49.982;8.560;2023-03-19T09:35:32;14.60;;;13.48;;
58982;SDS011;44771;49.982;8.560;2023-03-19T09:40:36;14.82;;;13.48;;
58982;SDS011;44771;49.982;8.560;2023-03-19T09:45:40;15.02;;;13.77;;
58982;SDS011;44771;49.982;8.560;2023-03-19T09:50:42;14.95;;;13.65;;
58982;SDS011;44771;49.982;8.560;2023-03-19T09:55:44;15.07;;;13.82;;
58982;SDS011;44771;49.982;8.560;2023-03-19T10:00:51;15.77;;;14.50;;
58982;SDS011;44771;49.982;8.560;2023-03-19T10:05:55;14.70;;;13.33;;
58982;SDS011;44771;49.982;8.560;2023-03-19T10:11:09;14.68;;;13.43;;
58982;SDS011;44771;49.982;8.560;2023-03-19T10:16:26;14.95;;;13.43;;
58982;SDS011;44771;49.982;8.560;2023-03-19T10:21:30;15.10;;;14.00;;
58982;SDS011;44771;49.982;8.560;2023-03-19T10:26:35;14.32;;;13.18;;
58982;SDS011;44771;49.982;8.560;2023-03-19T10:31:42;14.32;;;13.25;;
58982;SDS011;44771;49.982;8.560;2023-03-19T10:36:50;14.18;;;12.88;;
58982;SDS011;44771;49.982;8.560;2023-03-19T10:42:02;13.15;;;12.05;;
58982;SDS011;44771;49.982;8.560;2023-03-19T10:47:17;13.95;;;12.73;;
58982;SDS011;44771;49.982;8.560;2023-03-19T10:52:20;13.77;;;12.40;;
58982;SDS011;44771;49.982;8.560;2023-03-19T10:57:25;13.48;;;12.37;;
58982;SDS011;44771;49.982;8.560;2023-03-19T11:02:30;14.75;;;13.43;;
58982;SDS011;44771;49.982;8.560;2023-03-19T11:07:31;15.20;;;13.43;;
58982;SDS011;44771;49.982;8.560;2023-03-19T11:12:34;13.02;;;11.90;;
58982;SDS011;44771;49.982;8.560;2023-03-19T11:17:38;15.82;;;14.25;;
58982;SDS011;44771;49.982;8.560;2023-03-19T11:22:45;14.43;;;13.05;;
58982;SDS011;44771;49.982;8.560;2023-03-19T11:27:56;14.30;;;13.00;;
58982;SDS011;44771;49.982;8.560;2023-03-19T11:33:06;14.98;;;13.85;;
58982;SDS011;44771;49.982;8.560;2023-03-19T11:38:19;13.77;;;12.50;;
58982;SDS011;44771;49.982;8.560;2023-03-19T11:48:53;15.43;;;14.23;;
58982;SDS011;44771;49.982;8.560;2023-03-19T11:54:21;14.18;;;12.95;;
58982;SDS011;44771;49.982;8.560;2023-03-19T11:59:29;15.07;;;13.75;;
58982;SDS011;44771;49.982;8.560;2023-03-19T12:04:43;16.25;;;13.60;;
58982;SDS011;44771;49.982;8.560;2023-03-19T12:09:55;16.10;;;14.63;;
58982;SDS011;44771;49.982;8.560;2023-03-19T12:15:09;14.55;;;13.35;;
58982;SDS011;44771;49.982;8.560;2023-03-19T12:20:22;15.57;;;14.18;;
58982;SDS011;44771;49.982;8.560;2023-03-19T12:25:33;14.90;;;13.62;;
58982;SDS011;44771;49.982;8.560;2023-03-19T12:30:57;15.18;;;13.98;;
58982;SDS011;44771;49.982;8.560;2023-03-19T12:36:08;17.60;;;15.80;;
58982;SDS011;44771;49.982;8.560;2023-03-19T12:41:17;15.57;;;14.05;;
58982;SDS011;44771;49.982;8.560;2023-03-19T12:46:22;16.27;;;14.32;;
58982;SDS011;44771;49.982;8.560;2023-03-19T12:51:30;16.25;;;14.80;;
58982;SDS011;44771;49.982;8.560;2023-03-19T12:56:37;16.15;;;14.65;;
58982;SDS011;44771;49.982;8.560;2023-03-19T13:01:43;19.35;;;17.33;;
58982;SDS011;44771;49.982;8.560;2023-03-19T13:06:52;19.17;;;15.68;;
58982;SDS011;44771;49.982;8.560;2023-03-19T13:11:57;16.35;;;14.65;;
58982;SDS011;44771;49.982;8.560;2023-03-19T13:17:02;14.35;;;13.13;;
58982;SDS011;44771;49.982;8.560;2023-03-19T13:22:16;14.73;;;13.43;;
58982;SDS011;44771;49.982;8.560;2023-03-19T13:27:21;15.48;;;14.07;;
58982;SDS011;44771;49.982;8.560;2023-03-19T13:32:28;15.80;;;14.60;;
58982;SDS011;44771;49.982;8.560;2023-03-19T13:37:39;15.55;;;14.15;;
58982;SDS011;44771;49.982;8.560;2023-03-19T13:42:43;16.90;;;15.10;;
58982;SDS011;44771;49.982;8.560;2023-03-19T13:47:46;15.15;;;13.57;;
58982;SDS011;44771;49.982;8.560;2023-03-19T13:52:51;15.93;;;14.50;;
58982;SDS011;44771;49.982;8.560;2023-03-19T13:57:56;14.23;;;13.00;;
58982;SDS011;44771;49.982;8.560;2023-03-19T14:03:05;14.10;;;13.10;;
58982;SDS011;44771;49.982;8.560;2023-03-19T14:08:21;16.23;;;14.83;;
58982;SDS011;44771;49.982;8.560;2023-03-19T14:13:28;14.77;;;13.77;;
58982;SDS011;44771;49.982;8.560;2023-03-19T14:18:34;15.23;;;14.13;;
58982;SDS011;44771;49.982;8.560;2023-03-19T14:23:50;14.77;;;13.13;;
58982;SDS011;44771;49.982;8.560;2023-03-19T14:28:56;15.10;;;13.88;;
58982;SDS011;44771;49.982;8.560;2023-03-19T14:34:02;13.15;;;12.25;;
58982;SDS011;44771;49.982;8.560;2023-03-19T14:39:15;13.85;;;12.75;;
58982;SDS011;44771;49.982;8.560;2023-03-19T14:44:32;15.63;;;14.25;;
58982;SDS011;44771;49.982;8.560;2023-03-19T14:49:47;13.68;;;12.77;;
58982;SDS011;44771;49.982;8.560;2023-03-19T14:54:59;15.30;;;14.18;;
58982;SDS011;44771;49.982;8.560;2023-03-19T15:05:05;14.80;;;13.48;;
58982;SDS011;44771;49.982;8.560;2023-03-19T15:10:13;14.18;;;12.93;;
58982;SDS011;44771;49.982;8.560;2023-03-19T15:15:32;14.95;;;13.73;;
58982;SDS011;44771;49.982;8.560;2023-03-19T15:20:41;13.50;;;12.50;;
58982;SDS011;44771;49.982;8.560;2023-03-19T15:25:46;13.02;;;11.98;;
58982;SDS011;44771;49.982;8.560;2023-03-19T15:30:53;12.65;;;11.75;;
58982;SDS011;44771;49.982;8.560;2023-03-19T15:36:12;13.13;;;12.20;;
58982;SDS011;44771;49.982;8.560;2023-03-19T15:41:20;12.88;;;12.18;;
58982;SDS011;44771;49.982;8.560;2023-03-19T15:51:27;13.45;;;12.20;;
58982;SDS011;44771;49.982;8.560;2023-03-19T15:56:30;12.15;;;11.27;;
58982;SDS011;44771;49.982;8.560;2023-03-19T16:01:32;11.98;;;11.20;;
58982;SDS011;44771;49.982;8.560;2023-03-19T16:06:35;12.77;;;11.98;;
58982;SDS011;44771;49.982;8.560;2023-03-19T16:11:41;11.20;;;10.60;;
58982;SDS011;44771;49.982;8.560;2023-03-19T16:16:46;12.60;;;11.60;;
58982;SDS011;44771;49.982;8.560;2023-03-19T16:21:48;12.60;;;11.80;;
58982;SDS011;44771;49.982;8.560;2023-03-19T16:26:51;14.10;;;13.05;;
58982;SDS011;44771;49.982;8.560;2023-03-19T16:31:56;12.82;;;12.07;;
58982;SDS011;44771;49.982;8.560;2023-03-19T16:37:00;13.35;;;12.55;;
58982;SDS011;44771;49.982;8.560;2023-03-19T16:42:24;12.43;;;11.52;;
58982;SDS011;44771;49.982;8.560;2023-03-19T16:47:29;13.73;;;12.68;;
58982;SDS011;44771;49.982;8.560;2023-03-19T16:52:30;13.10;;;12.13;;
58982;SDS011;44771;49.982;8.560;2023-03-19T16:57:33;13.75;;;12.85;;
58982;SDS011;44771;49.982;8.560;2023-03-19T17:02:35;13.68;;;12.88;;
58982;SDS011;44771;49.982;8.560;2023-03-19T17:07:37;13.20;;;12.30;;
58982;SDS011;44771;49.982;8.560;2023-03-19T17:12:40;13.80;;;12.93;;
58982;SDS011;44771;49.982;8.560;2023-03-19T17:17:45;15.68;;;14.52;;
58982;SDS011;44771;49.982;8.560;2023-03-19T17:22:47;14.25;;;13.05;;
58982;SDS011;44771;49.982;8.560;2023-03-19T17:27:50;14.68;;;13.57;;
58982;SDS011;44771;49.982;8.560;2023-03-19T17:32:52;14.87;;;13.60;;
58982;SDS011;44771;49.982;8.560;2023-03-19T17:37:53;13.80;;;12.80;;
58982;SDS011;44771;49.982;8.560;2023-03-19T17:42:57;14.18;;;13.02;;
58982;SDS011;44771;49.982;8.560;2023-03-19T17:47:58;15.52;;;14.32;;
58982;SDS011;44771;49.982;8.560;2023-03-19T17:53:00;13.10;;;12.18;;
58982;SDS011;44771;49.982;8.560;2023-03-19T17:58:03;15.25;;;14.25;;
58982;SDS011;44771;49.982;8.560;2023-03-19T18:03:07;14.05;;;12.95;;
58982;SDS011;44771;49.982;8.560;2023-03-19T18:08:14;15.30;;;14.20;;
58982;SDS011;44771;49.982;8.560;2023-03-19T18:13:18;14.95;;;13.85;;
58982;SDS011;44771;49.982;8.560;2023-03-19T18:18:20;16.87;;;15.57;;
58982;SDS011;44771;49.982;8.560;2023-03-19T18:23:22;15.43;;;14.13;;
58982;SDS011;44771;49.982;8.560;2023-03-19T18:28:25;16.05;;;14.70;;
58982;SDS011;44771;49.982;8.560;2023-03-19T18:33:27;18.00;;;16.05;;
58982;SDS011;44771;49.982;8.560;2023-03-19T18:38:31;17.23;;;15.68;;
58982;SDS011;44771;49.982;8.560;2023-03-19T18:43:34;16.77;;;15.05;;
58982;SDS011;44771;49.982;8.560;2023-03-19T18:48:36;17.20;;;15.68;;
58982;SDS011;44771;49.982;8.560;2023-03-19T18:53:37;17.15;;;15.50;;
58982;SDS011;44771;49.982;8.560;2023-03-19T18:58:41;18.40;;;16.70;;
58982;SDS011;44771;49.982;8.560;2023-03-19T19:03:43;17.70;;;16.17;;
58982;SDS011;44771;49.982;8.560;2023-03-19T19:08:45;19.30;;;17.33;;
58982;SDS011;44771;49.982;8.560;2023-03-19T19:13:49;18.30;;;16.60;;
58982;SDS011;44771;49.982;8.560;2023-03-19T19:18:56;21.92;;;17.60;;
58982;SDS011;44771;49.982;8.560;2023-03-19T19:23:58;17.85;;;16.05;;
58982;SDS011;44771;49.982;8.560;2023-03-19T19:29:01;17.45;;;16.00;;
58982;SDS011;44771;49.982;8.560;2023-03-19T19:34:04;17.10;;;15.43;;
58982;SDS011;44771;49.982;8.560;2023-03-19T19:39:06;16.73;;;15.02;;
58982;SDS011;44771;49.982;8.560;2023-03-19T19:44:10;18.50;;;16.98;;
58982;SDS011;44771;49.982;8.560;2023-03-19T19:49:16;21.02;;;17.20;;
58982;SDS011;44771;49.982;8.560;2023-03-19T19:54:19;18.10;;;16.50;;
58982;SDS011;44771;49.982;8.560;2023-03-19T19:59:22;18.00;;;16.50;;
58982;SDS011;44771;49.982;8.560;2023-03-19T20:04:25;17.33;;;15.90;;
58982;SDS011;44771;49.982;8.560;2023-03-19T20:14:33;19.10;;;17.20;;
58982;SDS011;44771;49.982;8.560;2023-03-19T20:19:35;18.42;;;16.85;;
58982;SDS011;44771;49.982;8.560;2023-03-19T20:24:37;17.83;;;16.25;;
58982;SDS011;44771;49.982;8.560;2023-03-19T20:29:40;18.90;;;17.05;;
58982;SDS011;44771;49.982;8.560;2023-03-19T20:34:42;22.67;;;20.17;;
58982;SDS011;44771;49.982;8.560;2023-03-19T20:39:44;23.52;;;20.77;;
58982;SDS011;44771;49.982;8.560;2023-03-19T20:44:47;24.77;;;20.40;;
58982;SDS011;44771;49.982;8.560;2023-03-19T20:49:49;20.15;;;18.05;;
58982;SDS011;44771;49.982;8.560;2023-03-19T20:54:51;23.10;;;20.77;;
58982;SDS011;44771;49.982;8.560;2023-03-19T20:59:54;20.77;;;18.58;;
58982;SDS011;44771;49.982;8.560;2023-03-19T21:04:57;23.02;;;19.95;;
58982;SDS011;44771;49.982;8.560;2023-03-19T21:09:59;22.00;;;19.90;;
58982;SDS011;44771;49.982;8.560;2023-03-19T21:15:05;22.08;;;20.08;;
58982;SDS011;44771;49.982;8.560;2023-03-19T21:20:16;20.48;;;18.62;;
58982;SDS011;44771;49.982;8.560;2023-03-19T21:25:20;21.90;;;18.95;;
58982;SDS011;44771;49.982;8.560;2023-03-19T21:30:26;22.00;;;19.87;;
58982;SDS011;44771;49.982;8.560;2023-03-19T21:35:28;22.62;;;20.40;;
58982;SDS011;44771;49.982;8.560;2023-03-19T21:40:29;25.00;;;19.83;;
58982;SDS011;44771;49.982;8.560;2023-03-19T21:45:33;22.13;;;20.15;;
58982;SDS011;44771;49.982;8.560;2023-03-19T21:50:35;25.50;;;20.33;;
58982;SDS011;44771;49.982;8.560;2023-03-19T21:55:37;30.20;;;24.02;;
58982;SDS011;44771;49.982;8.560;2023-03-19T22:00:40;25.10;;;20.88;;
58982;SDS011;44771;49.982;8.560;2023-03-19T22:05:42;25.77;;;21.92;;
58982;SDS011;44771;49.982;8.560;2023-03-19T22:10:45;23.27;;;20.50;;
58982;SDS011;44771;49.982;8.560;2023-03-19T22:15:55;23.92;;;21.35;;
58982;SDS011;44771;49.982;8.560;2023-03-19T22:20:58;23.17;;;20.23;;
58982;SDS011;44771;49.982;8.560;2023-03-19T22:25:59;24.80;;;19.58;;
58982;SDS011;44771;49.982;8.560;2023-03-19T22:31:03;25.80;;;21.73;;
58982;SDS011;44771;49.982;8.560;2023-03-19T22:36:05;27.87;;;20.30;;
58982;SDS011;44771;49.982;8.560;2023-03-19T22:41:10;21.33;;;18.55;;
58982;SDS011;44771;49.982;8.560;2023-03-19T22:46:17;21.17;;;19.27;;
58982;SDS011;44771;49.982;8.560;2023-03-19T22:51:20;24.10;;;20.12;;
58982;SDS011;44771;49.982;8.560;2023-03-19T22:56:24;25.30;;;17.90;;
58982;SDS011;44771;49.982;8.560;2023-03-19T23:01:31;20.88;;;18.87;;
58982;SDS011;44771;49.982;8.560;2023-03-19T23:06:38;19.37;;;17.62;;
58982;SDS011;44771;49.982;8.560;2023-03-19T23:11:39;18.15;;;16.25;;
58982;SDS011;44771;49.982;8.560;2023-03-19T23:16:43;19.70;;;17.92;;
58982;SDS011;44771;49.982;8.560;2023-03-19T23:21:46;16.95;;;15.55;;
58982;SDS011;44771;49.982;8.560;2023-03-19T23:26:49;15.52;;;14.20;;
58982;SDS011;44771;49.982;8.560;2023-03-19T23:31:53;16.27;;;14.98;;
58982;SDS011;44771;49.982;8.560;2023-03-19T23:36:54;16.73;;;15.38;;
58982;SDS011;44771;49.982;8.560;2023-03-19T23:41:57;16.50;;;15.23;;
58982;SDS011;44771;49.982;8.560;2023-03-19T23:47:00;15.75;;;14.65;;
58982;SDS011;44771;49.982;8.560;2023-03-19T23:52:02;17.23;;;16.02;;
58982;SDS011;44771;49.982;8.560;2023-03-19T23:57:04;15.32;;;14.13;;
